sensor_id;sensor_type;location;lat;lon;timestamp;temperature;humidity
70051;SHT30;57391;51.306;22.680;2023-08-21T00:00:14;23.45;74.29
70051;SHT30;57391;51.306;22.680;2023-08-21T00:03:01;23.46;74.20
70051;SHT30;57391;51.306;22.680;2023-08-21T00:05:28;23.47;74.13
70051;SHT30;57391;51.306;22.680;2023-08-21T00:07:54;23.48;74.10
70051;SHT30;57391;51.306;22.680;2023-08-21T00:10:21;23.47;74.10
70051;SHT30;57391;51.306;22.680;2023-08-21T00:12:48;23.45;74.09
70051;SHT30;57391;51.306;22.680;2023-08-21T00:15:15;23.44;74.11
70051;SHT30;57391;51.306;22.680;2023-08-21T00:17:42;23.45;74.08
70051;SHT30;57391;51.306;22.680;2023-08-21T00:20:09;23.44;74.08
70051;SHT30;57391;51.306;22.680;2023-08-21T00:22:37;23.43;74.09
70051;SHT30;57391;51.306;22.680;2023-08-21T00:25:03;23.41;74.11
70051;SHT30;57391;51.306;22.680;2023-08-21T00:27:30;23.39;74.16
70051;SHT30;57391;51.306;22.680;2023-08-21T00:29:58;23.37;74.14
70051;SHT30;57391;51.306;22.680;2023-08-21T00:32:27;23.36;74.09
70051;SHT30;57391;51.306;22.680;2023-08-21T00:34:54;23.34;74.12
70051;SHT30;57391;51.306;22.680;2023-08-21T00:37:20;23.32;74.18
70051;SHT30;57391;51.306;22.680;2023-08-21T00:39:47;23.31;74.17
70051;SHT30;57391;51.306;22.680;2023-08-21T00:42:14;23.28;74.13
70051;SHT30;57391;51.306;22.680;2023-08-21T00:44:42;23.25;74.24
70051;SHT30;57391;51.306;22.680;2023-08-21T00:47:10;23.22;74.35
70051;SHT30;57391;51.306;22.680;2023-08-21T00:49:37;23.21;74.39
70051;SHT30;57391;51.306;22.680;2023-08-21T00:52:10;23.18;74.34
70051;SHT30;57391;51.306;22.680;2023-08-21T00:54:41;23.19;74.30
70051;SHT30;57391;51.306;22.680;2023-08-21T00:57:09;23.14;74.31
70051;SHT30;57391;51.306;22.680;2023-08-21T00:59:37;23.12;74.39
70051;SHT30;57391;51.306;22.680;2023-08-21T01:02:08;23.10;74.41
70051;SHT30;57391;51.306;22.680;2023-08-21T01:04:35;23.08;74.40
70051;SHT30;57391;51.306;22.680;2023-08-21T01:07:02;23.07;74.36
70051;SHT30;57391;51.306;22.680;2023-08-21T01:09:36;23.07;74.26
70051;SHT30;57391;51.306;22.680;2023-08-21T01:12:30;23.03;74.26
70051;SHT30;57391;51.306;22.680;2023-08-21T01:15:06;23.00;74.30
70051;SHT30;57391;51.306;22.680;2023-08-21T01:17:36;22.95;74.25
70051;SHT30;57391;51.306;22.680;2023-08-21T01:20:05;22.95;74.21
70051;SHT30;57391;51.306;22.680;2023-08-21T01:22:41;22.92;74.25
70051;SHT30;57391;51.306;22.680;2023-08-21T01:25:15;22.89;74.35
70051;SHT30;57391;51.306;22.680;2023-08-21T01:27:46;22.86;74.33
70051;SHT30;57391;51.306;22.680;2023-08-21T01:30:17;22.84;74.29
70051;SHT30;57391;51.306;22.680;2023-08-21T01:33:06;22.81;74.15
70051;SHT30;57391;51.306;22.680;2023-08-21T01:35:39;22.75;74.22
70051;SHT30;57391;51.306;22.680;2023-08-21T01:38:06;22.73;74.22
70051;SHT30;57391;51.306;22.680;2023-08-21T01:40:34;22.69;74.22
70051;SHT30;57391;51.306;22.680;2023-08-21T01:43:00;22.63;74.18
70051;SHT30;57391;51.306;22.680;2023-08-21T01:45:27;22.57;74.30
70051;SHT30;57391;51.306;22.680;2023-08-21T01:47:54;22.50;74.59
70051;SHT30;57391;51.306;22.680;2023-08-21T01:50:21;22.44;74.82
70051;SHT30;57391;51.306;22.680;2023-08-21T01:52:48;22.39;74.68
70051;SHT30;57391;51.306;22.680;2023-08-21T01:55:15;22.34;74.94
70051;SHT30;57391;51.306;22.680;2023-08-21T01:57:41;22.31;75.23
70051;SHT30;57391;51.306;22.680;2023-08-21T02:00:08;22.30;75.46
70051;SHT30;57391;51.306;22.680;2023-08-21T02:02:42;22.30;75.48
70051;SHT30;57391;51.306;22.680;2023-08-21T02:05:09;22.26;75.45
70051;SHT30;57391;51.306;22.680;2023-08-21T02:07:36;22.25;75.59
70051;SHT30;57391;51.306;22.680;2023-08-21T02:10:02;22.21;75.63
70051;SHT30;57391;51.306;22.680;2023-08-21T02:12:30;22.19;75.77
70051;SHT30;57391;51.306;22.680;2023-08-21T02:14:57;22.17;75.81
70051;SHT30;57391;51.306;22.680;2023-08-21T02:17:27;22.15;75.82
70051;SHT30;57391;51.306;22.680;2023-08-21T02:19:54;22.15;75.75
70051;SHT30;57391;51.306;22.680;2023-08-21T02:22:21;22.14;75.74
70051;SHT30;57391;51.306;22.680;2023-08-21T02:24:48;22.12;75.83
70051;SHT30;57391;51.306;22.680;2023-08-21T02:27:15;22.12;75.81
70051;SHT30;57391;51.306;22.680;2023-08-21T02:29:41;22.10;75.83
70051;SHT30;57391;51.306;22.680;2023-08-21T02:32:08;22.06;75.89
70051;SHT30;57391;51.306;22.680;2023-08-21T02:34:35;22.03;75.91
70051;SHT30;57391;51.306;22.680;2023-08-21T02:37:02;21.99;75.90
70051;SHT30;57391;51.306;22.680;2023-08-21T02:39:29;21.98;75.87
70051;SHT30;57391;51.306;22.680;2023-08-21T02:41:56;21.95;75.88
70051;SHT30;57391;51.306;22.680;2023-08-21T02:44:23;21.93;75.80
70051;SHT30;57391;51.306;22.680;2023-08-21T02:46:49;21.88;75.59
70051;SHT30;57391;51.306;22.680;2023-08-21T02:49:16;21.83;75.74
70051;SHT30;57391;51.306;22.680;2023-08-21T02:51:43;21.81;75.82
70051;SHT30;57391;51.306;22.680;2023-08-21T02:54:11;21.78;75.72
70051;SHT30;57391;51.306;22.680;2023-08-21T02:56:38;21.75;75.60
70051;SHT30;57391;51.306;22.680;2023-08-21T02:59:04;21.69;75.82
70051;SHT30;57391;51.306;22.680;2023-08-21T03:01:31;21.69;76.07
70051;SHT30;57391;51.306;22.680;2023-08-21T03:03:58;21.69;76.01
70051;SHT30;57391;51.306;22.680;2023-08-21T03:06:25;21.66;75.89
70051;SHT30;57391;51.306;22.680;2023-08-21T03:08:52;21.62;76.06
70051;SHT30;57391;51.306;22.680;2023-08-21T03:11:19;21.59;76.14
70051;SHT30;57391;51.306;22.680;2023-08-21T03:13:46;21.57;76.31
70051;SHT30;57391;51.306;22.680;2023-08-21T03:16:13;21.57;76.37
70051;SHT30;57391;51.306;22.680;2023-08-21T03:18:56;21.53;76.51
70051;SHT30;57391;51.306;22.680;2023-08-21T03:21:26;21.52;76.62
70051;SHT30;57391;51.306;22.680;2023-08-21T03:23:55;21.51;76.73
70051;SHT30;57391;51.306;22.680;2023-08-21T03:26:24;21.50;76.67
70051;SHT30;57391;51.306;22.680;2023-08-21T03:28:51;21.47;76.71
70051;SHT30;57391;51.306;22.680;2023-08-21T03:31:18;21.47;76.79
70051;SHT30;57391;51.306;22.680;2023-08-21T03:33:45;21.47;76.78
70051;SHT30;57391;51.306;22.680;2023-08-21T03:36:13;21.46;76.71
70051;SHT30;57391;51.306;22.680;2023-08-21T03:38:41;21.49;76.68
70051;SHT30;57391;51.306;22.680;2023-08-21T03:41:08;21.50;76.52
70051;SHT30;57391;51.306;22.680;2023-08-21T03:43:35;21.50;76.41
70051;SHT30;57391;51.306;22.680;2023-08-21T03:46:03;21.51;76.43
70051;SHT30;57391;51.306;22.680;2023-08-21T03:48:30;21.51;76.40
70051;SHT30;57391;51.306;22.680;2023-08-21T03:50:57;21.51;76.39
70051;SHT30;57391;51.306;22.680;2023-08-21T03:53:24;21.53;76.37
70051;SHT30;57391;51.306;22.680;2023-08-21T03:55:52;21.60;76.31
70051;SHT30;57391;51.306;22.680;2023-08-21T03:58:19;21.99;75.89
70051;SHT30;57391;51.306;22.680;2023-08-21T04:00:46;22.57;74.97
70051;SHT30;57391;51.306;22.680;2023-08-21T04:03:13;23.30;73.57
70051;SHT30;57391;51.306;22.680;2023-08-21T04:05:40;24.08;71.90
70051;SHT30;57391;51.306;22.680;2023-08-21T04:08:06;24.84;70.19
70051;SHT30;57391;51.306;22.680;2023-08-21T04:10:33;25.57;68.59
70051;SHT30;57391;51.306;22.680;2023-08-21T04:13:00;26.31;66.80
70051;SHT30;57391;51.306;22.680;2023-08-21T04:15:27;27.04;64.88
70051;SHT30;57391;51.306;22.680;2023-08-21T04:17:54;27.71;63.14
70051;SHT30;57391;51.306;22.680;2023-08-21T04:20:21;28.33;61.58
70051;SHT30;57391;51.306;22.680;2023-08-21T04:22:48;29.04;59.80
70051;SHT30;57391;51.306;22.680;2023-08-21T04:25:16;29.74;57.84
70051;SHT30;57391;51.306;22.680;2023-08-21T04:27:45;30.42;56.15
70051;SHT30;57391;51.306;22.680;2023-08-21T04:30:12;31.17;54.51
70051;SHT30;57391;51.306;22.680;2023-08-21T04:32:39;31.86;52.85
70051;SHT30;57391;51.306;22.680;2023-08-21T04:35:07;32.41;51.44
70051;SHT30;57391;51.306;22.680;2023-08-21T04:37:37;33.08;50.02
70051;SHT30;57391;51.306;22.680;2023-08-21T04:40:11;33.83;48.62
70051;SHT30;57391;51.306;22.680;2023-08-21T04:42:39;34.45;47.19
70051;SHT30;57391;51.306;22.680;2023-08-21T04:45:06;34.97;46.07
70051;SHT30;57391;51.306;22.680;2023-08-21T04:47:34;35.48;44.83
70051;SHT30;57391;51.306;22.680;2023-08-21T04:50:03;35.92;43.61
70051;SHT30;57391;51.306;22.680;2023-08-21T04:52:30;36.09;42.97
70051;SHT30;57391;51.306;22.680;2023-08-21T04:54:57;35.92;42.96
70051;SHT30;57391;51.306;22.680;2023-08-21T04:57:24;35.58;43.00
70051;SHT30;57391;51.306;22.680;2023-08-21T04:59:51;35.06;43.09
70051;SHT30;57391;51.306;22.680;2023-08-21T05:02:18;34.42;43.85
70051;SHT30;57391;51.306;22.680;2023-08-21T05:04:46;33.88;44.68
70051;SHT30;57391;51.306;22.680;2023-08-21T05:07:13;33.39;45.34
70051;SHT30;57391;51.306;22.680;2023-08-21T05:09:40;32.94;46.21
70051;SHT30;57391;51.306;22.680;2023-08-21T05:12:08;32.57;47.14
70051;SHT30;57391;51.306;22.680;2023-08-21T05:14:35;32.74;46.85
70051;SHT30;57391;51.306;22.680;2023-08-21T05:17:02;32.93;46.60
70051;SHT30;57391;51.306;22.680;2023-08-21T05:19:30;32.72;47.00
70051;SHT30;57391;51.306;22.680;2023-08-21T05:21:57;32.17;47.70
70051;SHT30;57391;51.306;22.680;2023-08-21T05:24:24;31.64;48.84
70051;SHT30;57391;51.306;22.680;2023-08-21T05:26:57;31.18;50.11
70051;SHT30;57391;51.306;22.680;2023-08-21T05:29:24;30.80;51.41
70051;SHT30;57391;51.306;22.680;2023-08-21T05:31:51;30.50;52.28
70051;SHT30;57391;51.306;22.680;2023-08-21T05:34:18;30.22;53.03
70051;SHT30;57391;51.306;22.680;2023-08-21T05:36:45;30.00;53.64
70051;SHT30;57391;51.306;22.680;2023-08-21T05:39:12;29.79;53.97
70051;SHT30;57391;51.306;22.680;2023-08-21T05:41:39;29.61;54.53
70051;SHT30;57391;51.306;22.680;2023-08-21T05:44:06;29.43;54.69
70051;SHT30;57391;51.306;22.680;2023-08-21T05:46:33;29.27;55.18
70051;SHT30;57391;51.306;22.680;2023-08-21T05:49:00;29.12;55.48
70051;SHT30;57391;51.306;22.680;2023-08-21T05:51:27;28.98;55.61
70051;SHT30;57391;51.306;22.680;2023-08-21T05:53:54;28.84;55.87
70051;SHT30;57391;51.306;22.680;2023-08-21T05:56:21;28.74;56.22
70051;SHT30;57391;51.306;22.680;2023-08-21T05:58:48;28.68;56.07
70051;SHT30;57391;51.306;22.680;2023-08-21T06:01:15;28.63;56.19
70051;SHT30;57391;51.306;22.680;2023-08-21T06:03:43;28.58;56.54
70051;SHT30;57391;51.306;22.680;2023-08-21T06:06:30;28.50;56.67
70051;SHT30;57391;51.306;22.680;2023-08-21T06:08:57;28.45;57.03
70051;SHT30;57391;51.306;22.680;2023-08-21T06:11:23;28.41;57.12
70051;SHT30;57391;51.306;22.680;2023-08-21T06:13:50;28.40;57.33
70051;SHT30;57391;51.306;22.680;2023-08-21T06:16:17;28.39;57.52
70051;SHT30;57391;51.306;22.680;2023-08-21T06:18:44;28.36;57.57
70051;SHT30;57391;51.306;22.680;2023-08-21T06:21:11;28.33;57.68
70051;SHT30;57391;51.306;22.680;2023-08-21T06:23:38;28.33;57.96
70051;SHT30;57391;51.306;22.680;2023-08-21T06:26:05;28.34;58.10
70051;SHT30;57391;51.306;22.680;2023-08-21T06:28:32;28.34;57.91
70051;SHT30;57391;51.306;22.680;2023-08-21T06:30:59;28.37;57.89
70051;SHT30;57391;51.306;22.680;2023-08-21T06:33:30;28.40;57.93
70051;SHT30;57391;51.306;22.680;2023-08-21T06:35:57;28.44;57.73
70051;SHT30;57391;51.306;22.680;2023-08-21T06:38:24;28.46;57.69
70051;SHT30;57391;51.306;22.680;2023-08-21T06:40:51;28.50;57.73
70051;SHT30;57391;51.306;22.680;2023-08-21T06:43:18;28.53;57.62
70051;SHT30;57391;51.306;22.680;2023-08-21T06:45:47;28.58;57.73
70051;SHT30;57391;51.306;22.680;2023-08-21T06:48:14;28.63;57.32
70051;SHT30;57391;51.306;22.680;2023-08-21T06:50:40;28.69;56.63
70051;SHT30;57391;51.306;22.680;2023-08-21T06:53:07;28.71;56.21
70051;SHT30;57391;51.306;22.680;2023-08-21T06:55:34;28.75;56.22
70051;SHT30;57391;51.306;22.680;2023-08-21T06:58:01;28.78;56.04
70051;SHT30;57391;51.306;22.680;2023-08-21T07:00:28;28.80;55.72
70051;SHT30;57391;51.306;22.680;2023-08-21T07:02:55;28.84;56.01
70051;SHT30;57391;51.306;22.680;2023-08-21T07:05:21;28.92;55.84
70051;SHT30;57391;51.306;22.680;2023-08-21T07:07:48;29.01;55.91
70051;SHT30;57391;51.306;22.680;2023-08-21T07:10:15;29.09;55.20
70051;SHT30;57391;51.306;22.680;2023-08-21T07:12:42;29.12;55.23
70051;SHT30;57391;51.306;22.680;2023-08-21T07:15:09;29.15;55.36
70051;SHT30;57391;51.306;22.680;2023-08-21T07:17:36;29.19;55.25
70051;SHT30;57391;51.306;22.680;2023-08-21T07:20:03;29.25;55.13
70051;SHT30;57391;51.306;22.680;2023-08-21T07:22:31;29.28;54.90
70051;SHT30;57391;51.306;22.680;2023-08-21T07:24:58;29.35;54.85
70051;SHT30;57391;51.306;22.680;2023-08-21T07:27:30;29.44;54.37
70051;SHT30;57391;51.306;22.680;2023-08-21T07:29:57;29.52;53.81
70051;SHT30;57391;51.306;22.680;2023-08-21T07:32:24;29.58;53.50
70051;SHT30;57391;51.306;22.680;2023-08-21T07:34:52;29.68;53.18
70051;SHT30;57391;51.306;22.680;2023-08-21T07:37:20;29.75;52.59
70051;SHT30;57391;51.306;22.680;2023-08-21T07:39:47;29.83;52.62
70051;SHT30;57391;51.306;22.680;2023-08-21T07:42:14;29.89;52.14
70051;SHT30;57391;51.306;22.680;2023-08-21T07:44:41;29.94;52.16
70051;SHT30;57391;51.306;22.680;2023-08-21T07:47:07;30.00;51.99
70051;SHT30;57391;51.306;22.680;2023-08-21T07:49:35;30.11;52.08
70051;SHT30;57391;51.306;22.680;2023-08-21T07:52:02;30.23;51.94
70051;SHT30;57391;51.306;22.680;2023-08-21T07:54:30;30.34;51.31
70051;SHT30;57391;51.306;22.680;2023-08-21T07:56:58;30.41;51.44
70051;SHT30;57391;51.306;22.680;2023-08-21T07:59:25;30.55;51.27
70051;SHT30;57391;51.306;22.680;2023-08-21T08:01:52;30.65;50.68
70051;SHT30;57391;51.306;22.680;2023-08-21T08:04:19;30.72;50.27
70051;SHT30;57391;51.306;22.680;2023-08-21T08:06:47;30.78;50.39
70051;SHT30;57391;51.306;22.680;2023-08-21T08:09:14;30.93;50.29
70051;SHT30;57391;51.306;22.680;2023-08-21T08:11:40;31.05;49.31
70051;SHT30;57391;51.306;22.680;2023-08-21T08:14:07;31.16;48.84
70051;SHT30;57391;51.306;22.680;2023-08-21T08:16:34;31.24;48.49
70051;SHT30;57391;51.306;22.680;2023-08-21T08:19:01;31.30;48.19
70051;SHT30;57391;51.306;22.680;2023-08-21T08:21:28;31.39;47.89
70051;SHT30;57391;51.306;22.680;2023-08-21T08:23:56;31.54;47.73
70051;SHT30;57391;51.306;22.680;2023-08-21T08:26:23;31.75;47.56
70051;SHT30;57391;51.306;22.680;2023-08-21T08:28:50;31.91;47.04
70051;SHT30;57391;51.306;22.680;2023-08-21T08:31:17;32.06;46.30
70051;SHT30;57391;51.306;22.680;2023-08-21T08:33:45;32.18;45.89
70051;SHT30;57391;51.306;22.680;2023-08-21T08:36:12;32.32;45.71
70051;SHT30;57391;51.306;22.680;2023-08-21T08:38:39;32.51;45.47
70051;SHT30;57391;51.306;22.680;2023-08-21T08:41:07;32.71;45.17
70051;SHT30;57391;51.306;22.680;2023-08-21T08:43:45;32.79;44.57
70051;SHT30;57391;51.306;22.680;2023-08-21T08:46:14;32.82;44.26
70051;SHT30;57391;51.306;22.680;2023-08-21T08:48:41;32.92;44.30
70051;SHT30;57391;51.306;22.680;2023-08-21T08:51:08;33.04;43.60
70051;SHT30;57391;51.306;22.680;2023-08-21T08:53:36;33.03;43.73
70051;SHT30;57391;51.306;22.680;2023-08-21T08:56:04;32.96;43.94
70051;SHT30;57391;51.306;22.680;2023-08-21T08:58:31;32.95;43.70
70051;SHT30;57391;51.306;22.680;2023-08-21T09:00:57;32.93;43.35
70051;SHT30;57391;51.306;22.680;2023-08-21T09:03:28;32.97;43.29
70051;SHT30;57391;51.306;22.680;2023-08-21T09:05:56;32.97;43.21
70051;SHT30;57391;51.306;22.680;2023-08-21T09:08:26;32.96;43.24
70051;SHT30;57391;51.306;22.680;2023-08-21T09:10:53;32.88;43.34
70051;SHT30;57391;51.306;22.680;2023-08-21T09:13:20;32.85;43.40
70051;SHT30;57391;51.306;22.680;2023-08-21T09:15:48;32.85;43.42
70051;SHT30;57391;51.306;22.680;2023-08-21T09:18:20;32.93;43.37
70051;SHT30;57391;51.306;22.680;2023-08-21T09:20:47;33.04;43.40
70051;SHT30;57391;51.306;22.680;2023-08-21T09:23:15;33.05;42.88
70051;SHT30;57391;51.306;22.680;2023-08-21T09:25:48;32.93;42.84
70051;SHT30;57391;51.306;22.680;2023-08-21T09:28:19;32.75;43.45
70051;SHT30;57391;51.306;22.680;2023-08-21T09:30:48;32.59;43.72
70051;SHT30;57391;51.306;22.680;2023-08-21T09:33:22;32.38;44.23
70051;SHT30;57391;51.306;22.680;2023-08-21T09:35:51;32.17;44.86
70051;SHT30;57391;51.306;22.680;2023-08-21T09:38:19;31.91;45.44
70051;SHT30;57391;51.306;22.680;2023-08-21T09:40:50;31.69;46.69
70051;SHT30;57391;51.306;22.680;2023-08-21T09:43:21;31.45;47.94
70051;SHT30;57391;51.306;22.680;2023-08-21T09:45:50;31.25;48.90
70051;SHT30;57391;51.306;22.680;2023-08-21T09:48:22;31.02;49.78
70051;SHT30;57391;51.306;22.680;2023-08-21T09:50:51;30.80;50.50
70051;SHT30;57391;51.306;22.680;2023-08-21T09:53:19;30.60;50.93
70051;SHT30;57391;51.306;22.680;2023-08-21T09:55:50;30.46;51.37
70051;SHT30;57391;51.306;22.680;2023-08-21T09:58:20;30.34;51.69
70051;SHT30;57391;51.306;22.680;2023-08-21T10:00:48;30.19;51.96
70051;SHT30;57391;51.306;22.680;2023-08-21T10:03:18;30.09;52.25
70051;SHT30;57391;51.306;22.680;2023-08-21T10:05:49;29.99;52.26
70051;SHT30;57391;51.306;22.680;2023-08-21T10:08:23;29.88;51.66
70051;SHT30;57391;51.306;22.680;2023-08-21T10:10:53;29.76;51.90
70051;SHT30;57391;51.306;22.680;2023-08-21T10:13:22;29.66;52.27
70051;SHT30;57391;51.306;22.680;2023-08-21T10:15:49;29.53;52.43
70051;SHT30;57391;51.306;22.680;2023-08-21T10:18:23;29.41;52.55
70051;SHT30;57391;51.306;22.680;2023-08-21T10:21:15;29.27;52.79
70051;SHT30;57391;51.306;22.680;2023-08-21T10:23:49;29.15;53.04
70051;SHT30;57391;51.306;22.680;2023-08-21T10:26:20;29.05;53.38
70051;SHT30;57391;51.306;22.680;2023-08-21T10:33:57;28.75;54.79
70051;SHT30;57391;51.306;22.680;2023-08-21T10:44:33;28.48;56.27
70051;SHT30;57391;51.306;22.680;2023-08-21T10:49:58;28.38;56.89
70051;SHT30;57391;51.306;22.680;2023-08-21T10:52:28;28.36;57.05
70051;SHT30;57391;51.306;22.680;2023-08-21T10:55:02;28.35;57.35
70051;SHT30;57391;51.306;22.680;2023-08-21T10:57:30;28.33;57.33
70051;SHT30;57391;51.306;22.680;2023-08-21T11:00:00;28.28;57.45
70051;SHT30;57391;51.306;22.680;2023-08-21T11:02:48;28.26;57.79
70051;SHT30;57391;51.306;22.680;2023-08-21T11:05:16;28.23;58.12
70051;SHT30;57391;51.306;22.680;2023-08-21T11:07:44;28.20;58.45
70051;SHT30;57391;51.306;22.680;2023-08-21T11:10:15;28.20;58.67
70051;SHT30;57391;51.306;22.680;2023-08-21T11:12:51;28.19;58.92
70051;SHT30;57391;51.306;22.680;2023-08-21T11:15:24;28.18;59.26
70051;SHT30;57391;51.306;22.680;2023-08-21T11:17:55;28.18;59.13
70051;SHT30;57391;51.306;22.680;2023-08-21T11:20:27;28.19;59.19
70051;SHT30;57391;51.306;22.680;2023-08-21T11:23:01;28.22;59.27
70051;SHT30;57391;51.306;22.680;2023-08-21T11:25:34;28.24;59.25
70051;SHT30;57391;51.306;22.680;2023-08-21T11:28:05;28.24;59.33
70051;SHT30;57391;51.306;22.680;2023-08-21T11:30:34;28.26;59.44
70051;SHT30;57391;51.306;22.680;2023-08-21T11:33:08;28.28;59.69
70051;SHT30;57391;51.306;22.680;2023-08-21T11:35:36;28.31;59.60
70051;SHT30;57391;51.306;22.680;2023-08-21T11:38:05;28.34;59.50
70051;SHT30;57391;51.306;22.680;2023-08-21T11:40:35;28.38;59.62
70051;SHT30;57391;51.306;22.680;2023-08-21T11:43:03;28.41;59.90
70051;SHT30;57391;51.306;22.680;2023-08-21T11:45:35;28.54;59.57
70051;SHT30;57391;51.306;22.680;2023-08-21T11:48:02;28.67;58.95
70051;SHT30;57391;51.306;22.680;2023-08-21T11:50:29;28.84;58.67
70051;SHT30;57391;51.306;22.680;2023-08-21T11:52:56;29.06;58.58
70051;SHT30;57391;51.306;22.680;2023-08-21T11:55:23;29.24;58.36
70051;SHT30;57391;51.306;22.680;2023-08-21T11:57:51;29.49;57.84
70051;SHT30;57391;51.306;22.680;2023-08-21T12:00:28;29.68;56.44
70051;SHT30;57391;51.306;22.680;2023-08-21T12:02:57;29.86;55.89
70051;SHT30;57391;51.306;22.680;2023-08-21T12:05:27;30.03;55.41
70051;SHT30;57391;51.306;22.680;2023-08-21T12:07:55;30.08;54.69
70051;SHT30;57391;51.306;22.680;2023-08-21T12:10:25;30.04;54.59
70051;SHT30;57391;51.306;22.680;2023-08-21T12:12:55;29.99;54.34
70051;SHT30;57391;51.306;22.680;2023-08-21T12:15:23;30.05;54.19
70051;SHT30;57391;51.306;22.680;2023-08-21T12:17:49;30.15;53.96
70051;SHT30;57391;51.306;22.680;2023-08-21T12:20:16;30.29;54.39
70051;SHT30;57391;51.306;22.680;2023-08-21T12:22:43;30.45;53.96
70051;SHT30;57391;51.306;22.680;2023-08-21T12:25:10;30.57;53.94
70051;SHT30;57391;51.306;22.680;2023-08-21T12:27:39;30.57;53.80
70051;SHT30;57391;51.306;22.680;2023-08-21T12:30:06;30.51;53.61
70051;SHT30;57391;51.306;22.680;2023-08-21T12:32:33;30.51;53.67
70051;SHT30;57391;51.306;22.680;2023-08-21T12:35:00;30.53;53.33
70051;SHT30;57391;51.306;22.680;2023-08-21T12:37:27;30.53;53.42
70051;SHT30;57391;51.306;22.680;2023-08-21T12:39:55;30.52;53.45
70051;SHT30;57391;51.306;22.680;2023-08-21T12:42:22;30.51;53.57
70051;SHT30;57391;51.306;22.680;2023-08-21T12:44:49;30.53;53.65
70051;SHT30;57391;51.306;22.680;2023-08-21T12:47:16;30.53;53.49
70051;SHT30;57391;51.306;22.680;2023-08-21T12:49:43;30.55;53.79
70051;SHT30;57391;51.306;22.680;2023-08-21T12:52:10;30.60;53.75
70051;SHT30;57391;51.306;22.680;2023-08-21T12:54:38;30.66;53.30
70051;SHT30;57391;51.306;22.680;2023-08-21T12:57:06;30.67;53.08
70051;SHT30;57391;51.306;22.680;2023-08-21T12:59:33;30.67;53.11
70051;SHT30;57391;51.306;22.680;2023-08-21T13:02:00;30.71;53.43
70051;SHT30;57391;51.306;22.680;2023-08-21T13:04:28;30.75;53.49
70051;SHT30;57391;51.306;22.680;2023-08-21T13:06:55;30.81;52.98
70051;SHT30;57391;51.306;22.680;2023-08-21T13:09:22;30.83;52.51
70051;SHT30;57391;51.306;22.680;2023-08-21T13:11:51;30.81;51.84
70051;SHT30;57391;51.306;22.680;2023-08-21T13:14:20;30.79;51.90
70051;SHT30;57391;51.306;22.680;2023-08-21T13:16:47;30.82;51.45
70051;SHT30;57391;51.306;22.680;2023-08-21T13:19:14;30.87;51.09
70051;SHT30;57391;51.306;22.680;2023-08-21T13:21:40;30.92;51.61
70051;SHT30;57391;51.306;22.680;2023-08-21T13:24:07;30.94;51.10
70051;SHT30;57391;51.306;22.680;2023-08-21T13:26:34;30.94;51.40
70051;SHT30;57391;51.306;22.680;2023-08-21T13:29:01;30.93;50.98
70051;SHT30;57391;51.306;22.680;2023-08-21T13:31:28;30.94;51.27
70051;SHT30;57391;51.306;22.680;2023-08-21T13:33:55;30.94;51.22
70051;SHT30;57391;51.306;22.680;2023-08-21T13:36:22;30.94;51.22
70051;SHT30;57391;51.306;22.680;2023-08-21T13:38:49;30.95;51.14
70051;SHT30;57391;51.306;22.680;2023-08-21T13:41:15;30.95;50.82
70051;SHT30;57391;51.306;22.680;2023-08-21T13:43:42;30.97;50.94
70051;SHT30;57391;51.306;22.680;2023-08-21T13:46:09;30.98;51.10
70051;SHT30;57391;51.306;22.680;2023-08-21T13:48:36;30.99;51.46
70051;SHT30;57391;51.306;22.680;2023-08-21T13:51:03;31.00;51.60
70051;SHT30;57391;51.306;22.680;2023-08-21T13:53:30;31.02;50.02
70051;SHT30;57391;51.306;22.680;2023-08-21T13:55:57;30.95;49.81
70051;SHT30;57391;51.306;22.680;2023-08-21T13:58:24;30.95;50.32
70051;SHT30;57391;51.306;22.680;2023-08-21T14:00:52;30.97;50.01
70051;SHT30;57391;51.306;22.680;2023-08-21T14:03:18;30.98;49.45
70051;SHT30;57391;51.306;22.680;2023-08-21T14:05:45;30.96;49.14
70051;SHT30;57391;51.306;22.680;2023-08-21T14:08:12;30.89;49.28
70051;SHT30;57391;51.306;22.680;2023-08-21T14:10:39;30.77;49.61
70051;SHT30;57391;51.306;22.680;2023-08-21T14:13:06;30.65;49.67
70051;SHT30;57391;51.306;22.680;2023-08-21T14:15:34;30.58;49.79
70051;SHT30;57391;51.306;22.680;2023-08-21T14:18:01;30.58;49.69
70051;SHT30;57391;51.306;22.680;2023-08-21T14:20:29;30.64;49.81
70051;SHT30;57391;51.306;22.680;2023-08-21T14:22:56;30.70;49.91
70051;SHT30;57391;51.306;22.680;2023-08-21T14:25:23;30.81;49.79
70051;SHT30;57391;51.306;22.680;2023-08-21T14:27:50;30.92;49.54
70051;SHT30;57391;51.306;22.680;2023-08-21T14:30:17;30.98;48.48
70051;SHT30;57391;51.306;22.680;2023-08-21T14:32:45;31.02;47.37
70051;SHT30;57391;51.306;22.680;2023-08-21T14:35:12;31.01;46.38
70051;SHT30;57391;51.306;22.680;2023-08-21T14:37:38;30.98;46.27
70051;SHT30;57391;51.306;22.680;2023-08-21T14:40:06;30.96;45.91
70051;SHT30;57391;51.306;22.680;2023-08-21T14:42:36;30.94;45.93
70051;SHT30;57391;51.306;22.680;2023-08-21T14:45:05;30.89;45.98
70051;SHT30;57391;51.306;22.680;2023-08-21T14:47:32;30.83;45.51
70051;SHT30;57391;51.306;22.680;2023-08-21T14:49:59;30.77;45.20
70051;SHT30;57391;51.306;22.680;2023-08-21T14:52:27;30.68;45.31
70051;SHT30;57391;51.306;22.680;2023-08-21T14:54:53;30.59;45.07
70051;SHT30;57391;51.306;22.680;2023-08-21T14:57:20;30.49;44.77
70051;SHT30;57391;51.306;22.680;2023-08-21T14:59:47;30.39;44.72
70051;SHT30;57391;51.306;22.680;2023-08-21T15:02:14;30.30;44.40
70051;SHT30;57391;51.306;22.680;2023-08-21T15:04:42;30.26;44.13
70051;SHT30;57391;51.306;22.680;2023-08-21T15:07:09;30.23;44.48
70051;SHT30;57391;51.306;22.680;2023-08-21T15:09:36;30.21;43.56
70051;SHT30;57391;51.306;22.680;2023-08-21T15:12:03;30.18;42.86
70051;SHT30;57391;51.306;22.680;2023-08-21T15:14:32;30.15;42.49
70051;SHT30;57391;51.306;22.680;2023-08-21T15:16:59;30.11;42.11
70051;SHT30;57391;51.306;22.680;2023-08-21T15:19:27;30.08;41.91
70051;SHT30;57391;51.306;22.680;2023-08-21T15:21:53;30.07;41.59
70051;SHT30;57391;51.306;22.680;2023-08-21T15:24:20;30.08;41.21
70051;SHT30;57391;51.306;22.680;2023-08-21T15:26:48;30.08;41.59
70051;SHT30;57391;51.306;22.680;2023-08-21T15:29:15;30.05;41.49
70051;SHT30;57391;51.306;22.680;2023-08-21T15:31:42;30.00;41.56
70051;SHT30;57391;51.306;22.680;2023-08-21T15:34:09;29.98;41.97
70051;SHT30;57391;51.306;22.680;2023-08-21T15:36:35;29.93;41.88